Time;durP1;ratioP1;P1;durP2;ratioP2;P2;SDS_P1;SDS_P2;PMS_P1;PMS_P2;Temp;Humidity;BMP_temperature;BMP_pressure;BME280_temperature;BME280_humidity;BME280_pressure;Samples;Min_cycle;Max_cycle;Signal;HPM_P1;HPM_P2
2022/04/13 00:03:38;;;;;;;;;868.50;864.50;;;;;;;;2;288082791;288082791;-77
2022/04/13 00:11:54;;;;;;;;;867.50;864.00;;;;;;;;2;261076172;261076172;-77
2022/04/13 00:21:22;;;;;;;;;863.50;860.50;;;;;;;;2;288084908;288084908;-77
2022/04/13 00:29:37;;;;;;;;;871.50;867.00;;;;;;;;2;261077865;261077865;-77
2022/04/13 00:39:04;;;;;;;;;3333.00;3333.00;;;;;;;;2;288084627;288084627;-77
2022/04/13 00:47:20;;;;;;;;;3333.00;3333.00;;;;;;;;2;261077445;261077445;-77
2022/04/13 00:56:49;;;;;;;;;3333.00;3333.00;;;;;;;;2;288083498;288083498;-77
2022/04/13 01:05:05;;;;;;;;;3333.00;3333.00;;;;;;;;2;261076893;261076893;-77
2022/04/13 01:14:34;;;;;;;;;3333.00;3333.00;;;;;;;;2;288085158;288085158;-77
2022/04/13 01:22:49;;;;;;;;;886.00;883.00;;;;;;;;2;261076500;261076500;-77
2022/04/13 01:32:17;;;;;;;;;3333.00;3333.00;;;;;;;;2;288081941;288081941;-75
2022/04/13 01:40:32;;;;;;;;;3333.00;3333.00;;;;;;;;2;261073951;261073951;-77
2022/04/13 01:50:00;;;;;;;;;876.50;871.00;;;;;;;;2;288083556;288083556;-77
2022/04/13 01:58:15;;;;;;;;;876.50;871.00;;;;;;;;2;261076451;261076451;-75
2022/04/13 02:07:43;;;;;;;;;879.00;873.50;;;;;;;;2;288083228;288083228;-75
2022/04/13 02:15:58;;;;;;;;;878.00;872.50;;;;;;;;2;261077912;261077912;-76
2022/04/13 02:25:26;;;;;;;;;873.00;868.00;;;;;;;;2;288086580;288086580;-75
2022/04/13 02:33:41;;;;;;;;;872.00;867.50;;;;;;;;2;261077342;261077342;-75
2022/04/13 02:43:10;;;;;;;;;862.50;859.50;;;;;;;;2;288082567;288082567;-75
2022/04/13 02:51:26;;;;;;;;;39.00;35.50;;;;;;;;2;261075692;261075692;-76
2022/04/13 03:00:54;;;;;;;;;855.00;854.50;;;;;;;;2;288082617;288082617;-75
2022/04/13 03:09:10;;;;;;;;;36.50;33.50;;;;;;;;2;261074513;261074513;-75
2022/04/13 03:18:37;;;;;;;;;42.50;38.00;;;;;;;;2;288084027;288084027;-75
2022/04/13 03:26:53;;;;;;;;;36.50;33.00;;;;;;;;2;261075308;261075308;-77
2022/04/13 03:36:20;;;;;;;;;855.00;854.50;;;;;;;;2;288084961;288084961;-80
2022/04/13 03:44:36;;;;;;;;;879.00;873.00;;;;;;;;2;261077791;261077791;-81
2022/04/13 03:54:04;;;;;;;;;873.50;869.00;;;;;;;;2;288083806;288083806;-80
2022/04/13 04:02:19;;;;;;;;;867.50;864.00;;;;;;;;2;261076094;261076094;-80
2022/04/13 04:11:47;;;;;;;;;867.00;863.50;;;;;;;;2;288080872;288080872;-80
2022/04/13 04:20:03;;;;;;;;;863.00;860.00;;;;;;;;2;261076158;261076158;-81
2022/04/13 04:29:31;;;;;;;;;857.50;856.00;;;;;;;;2;288083308;288083308;-80
2022/04/13 04:37:46;;;;;;;;;48.00;41.00;;;;;;;;2;261079644;261079644;-80
2022/04/13 04:47:14;;;;;;;;;41.00;37.00;;;;;;;;2;288084082;288084082;-80
2022/04/13 04:55:29;;;;;;;;;43.50;30.00;;;;;;;;2;261076467;261076467;-80
2022/04/13 05:04:57;;;;;;;;;42.50;38.00;;;;;;;;2;288083097;288083097;-81
2022/04/13 05:13:12;;;;;;;;;33.50;30.00;;;;;;;;2;261076782;261076782;-81
2022/04/13 05:22:40;;;;;;;;;34.00;30.50;;;;;;;;2;288085891;288085891;-81
2022/04/13 05:30:56;;;;;;;;;40.00;35.50;;;;;;;;2;261075707;261075707;-80
2022/04/13 05:40:24;;;;;;;;;39.50;35.50;;;;;;;;2;288087234;288087234;-80
2022/04/13 05:48:39;;;;;;;;;33.50;30.00;;;;;;;;2;261077279;261077279;-82
2022/04/13 05:58:07;;;;;;;;;39.00;34.50;;;;;;;;2;288086096;288086096;-80
2022/04/13 06:06:25;;;;;;;;;31.00;27.50;;;;;;;;2;261078979;261078979;-80
2022/04/13 06:15:53;;;;;;;;;36.50;32.50;;;;;;;;2;288084217;288084217;-80
2022/04/13 06:38:06;;;;;;;;;64.00;53.00;;;;;;;;175438;28;261076003;-82
2022/04/13 06:47:33;;;;;;;;;27.50;24.00;;;;;;;;2;288086262;288086262;-79
2022/04/13 06:55:15;;;;;;;;;;;;;;;;;;2;261076424;261076424;-79
2022/04/13 07:06:00;;;;;;;;;36.00;31.50;;;;;;;;521896;28;279083699;-79
2022/04/13 07:09:13;;;;;;;;;35.50;31.50;;;;;;;;2;193334169;193334169;-76
2022/04/13 07:18:19;;;;;;;;;28.00;24.50;;;;;;;;162143;28;279085528;-75
2022/04/13 07:27:02;;;;;;;;;28.50;25.50;;;;;;;;2;234068337;234068337;-78
2022/04/13 07:47:23;;;;;;;;;62.50;50.50;;;;;;;;175493;27;147743184;-79
2022/04/13 07:56:20;;;;;;;;;28.50;25.50;;;;;;;;123880;28;270376516;-79
2022/04/13 08:04:44;;;;;;;;;32.50;29.00;;;;;;;;2;216276224;216276224;-77
2022/04/13 08:13:45;;;;;;;;;32.00;28.50;;;;;;;;2;279083243;279083243;-77
2022/04/13 08:22:28;;;;;;;;;21.00;21.00;;;;;;;;2;234069152;234069152;-77
2022/04/13 08:31:28;;;;;;;;;33.00;29.00;;;;;;;;2;279083515;279083515;-76
2022/04/13 08:40:12;;;;;;;;;31.00;27.50;;;;;;;;2;234068647;234068647;-75
2022/04/13 08:49:13;;;;;;;;;30.50;27.00;;;;;;;;2;279081291;279081291;-75
2022/04/13 08:58:25;;;;;;;;;29.00;27.50;;;;;;;;2;234069004;234069004;-76
2022/04/13 09:07:29;;;;;;;;;32.50;29.00;;;;;;;;2;279079597;279079597;-76
2022/04/13 09:16:12;;;;;;;;;27.50;24.50;;;;;;;;2;234069687;234069687;-76
2022/04/13 09:25:13;;;;;;;;;28.00;25.00;;;;;;;;2;279080305;279080305;-75
2022/04/13 09:33:56;;;;;;;;;32.00;29.00;;;;;;;;2;234070445;234070445;-76
2022/04/13 09:43:06;;;;;;;;;38.50;34.50;;;;;;;;2;279079383;279079383;-76
2022/04/13 09:51:52;;;;;;;;;36.00;32.50;;;;;;;;2;234070030;234070030;-77
2022/04/13 10:00:54;;;;;;;;;28.50;26.50;;;;;;;;2;279081426;279081426;-76
2022/04/13 10:09:37;;;;;;;;;25.00;24.00;;;;;;;;2;234069888;234069888;-76
2022/04/13 10:18:56;;;;;;;;;32.50;29.00;;;;;;;;2;279083631;279083631;-76
2022/04/13 10:27:51;;;;;;;;;16.00;16.00;;;;;;;;2;234070345;234070345;-76
2022/04/13 10:36:52;;;;;;;;;17.50;17.50;;;;;;;;2;279081707;279081707;-76
2022/04/13 10:45:37;;;;;;;;;26.00;24.00;;;;;;;;2;234078734;234078734;-76
2022/04/13 10:54:38;;;;;;;;;21.00;20.50;;;;;;;;2;279080271;279080271;-77
2022/04/13 11:03:22;;;;;;;;;10.50;10.50;;;;;;;;2;234073928;234073928;-77
2022/04/13 11:12:26;;;;;;;;;4.00;4.00;;;;;;;;2;279084462;279084462;-77
2022/04/13 11:21:09;;;;;;;;;5.50;5.50;;;;;;;;2;234070459;234070459;-77
2022/04/13 11:30:10;;;;;;;;;8.50;8.50;;;;;;;;2;279083105;279083105;-77
2022/04/13 11:38:53;;;;;;;;;6.00;6.00;;;;;;;;2;234066724;234066724;-76
2022/04/13 11:47:55;;;;;;;;;9.00;9.00;;;;;;;;2;279082166;279082166;-76
2022/04/13 11:56:39;;;;;;;;;5.50;5.50;;;;;;;;2;234069068;234069068;-76
2022/04/13 12:05:41;;;;;;;;;11.00;11.00;;;;;;;;2;279079883;279079883;-76
2022/04/13 12:14:36;;;;;;;;;10.50;10.50;;;;;;;;2;234069818;234069818;-74
2022/04/13 12:23:37;;;;;;;;;10.00;10.00;;;;;;;;2;279085617;279085617;-75
2022/04/13 12:32:20;;;;;;;;;15.00;11.00;;;;;;;;2;234070278;234070278;-75
2022/04/13 12:41:21;;;;;;;;;10.00;6.00;;;;;;;;2;279081580;279081580;-75
2022/04/13 12:50:04;;;;;;;;;6.50;6.50;;;;;;;;2;234076189;234076189;-75
2022/04/13 12:59:05;;;;;;;;;17.00;17.00;;;;;;;;2;279086003;279086003;-75
2022/04/13 13:07:48;;;;;;;;;11.50;11.50;;;;;;;;2;234071684;234071684;-76
2022/04/13 13:16:48;;;;;;;;;23.50;12.00;;;;;;;;2;279083830;279083830;-78
2022/04/13 13:25:39;;;;;;;;;6.00;6.00;;;;;;;;2;234069275;234069275;-78
2022/04/13 13:34:47;;;;;;;;;8.50;8.50;;;;;;;;2;279084766;279084766;-76
2022/04/13 13:43:29;;;;;;;;;7.50;7.50;;;;;;;;2;234070004;234070004;-75
2022/04/13 13:52:30;;;;;;;;;8.50;8.50;;;;;;;;2;279082561;279082561;-76
2022/04/13 14:01:13;;;;;;;;;11.00;11.00;;;;;;;;2;234072037;234072037;-77
2022/04/13 14:10:13;;;;;;;;;8.50;8.50;;;;;;;;2;279081373;279081373;-77
2022/04/13 14:18:57;;;;;;;;;5.50;5.50;;;;;;;;2;234069073;234069073;-77
2022/04/13 14:27:58;;;;;;;;;13.50;9.50;;;;;;;;2;279083954;279083954;-77
2022/04/13 14:36:41;;;;;;;;;10.50;10.50;;;;;;;;2;234068273;234068273;-76
2022/04/13 14:45:44;;;;;;;;;7.50;7.50;;;;;;;;2;279080896;279080896;-76
2022/04/13 14:54:26;;;;;;;;;9.50;9.50;;;;;;;;2;234071330;234071330;-76
2022/04/13 15:03:27;;;;;;;;;3.00;3.00;;;;;;;;2;279079655;279079655;-76
2022/04/13 15:12:09;;;;;;;;;3.00;3.00;;;;;;;;2;234068536;234068536;-76
2022/04/13 15:21:10;;;;;;;;;8.50;8.50;;;;;;;;2;279082256;279082256;-76
2022/04/13 15:29:52;;;;;;;;;7.00;7.00;;;;;;;;2;234068686;234068686;-76
2022/04/13 15:38:53;;;;;;;;;4.50;4.50;;;;;;;;2;279083019;279083019;-76
2022/04/13 15:47:35;;;;;;;;;7.50;7.50;;;;;;;;2;234068408;234068408;-76
2022/04/13 15:56:36;;;;;;;;;10.50;10.50;;;;;;;;2;279080504;279080504;-77
2022/04/13 16:05:19;;;;;;;;;3.50;3.50;;;;;;;;2;234069508;234069508;-77
2022/04/13 16:14:19;;;;;;;;;6.50;6.50;;;;;;;;2;279080242;279080242;-77
2022/04/13 16:23:02;;;;;;;;;6.00;6.00;;;;;;;;2;234068223;234068223;-76
2022/04/13 16:32:03;;;;;;;;;10.00;10.00;;;;;;;;2;279081859;279081859;-76
2022/04/13 16:40:46;;;;;;;;;6.00;2.00;;;;;;;;2;234070284;234070284;-77
2022/04/13 16:49:49;;;;;;;;;6.00;6.00;;;;;;;;2;279084313;279084313;-77
2022/04/13 16:58:31;;;;;;;;;3.00;3.00;;;;;;;;2;234068750;234068750;-76
2022/04/13 17:07:32;;;;;;;;;7.50;7.50;;;;;;;;2;279085711;279085711;-77
2022/04/13 17:16:14;;;;;;;;;8.00;8.00;;;;;;;;2;234069411;234069411;-77
2022/04/13 17:25:16;;;;;;;;;3.50;3.50;;;;;;;;2;279080107;279080107;-76
2022/04/13 17:33:58;;;;;;;;;9.50;9.50;;;;;;;;2;234070562;234070562;-75
2022/04/13 17:42:59;;;;;;;;;11.00;11.00;;;;;;;;2;279081594;279081594;-80
2022/04/13 17:51:41;;;;;;;;;11.00;11.00;;;;;;;;2;234068981;234068981;-80
2022/04/13 18:00:42;;;;;;;;;6.50;6.50;;;;;;;;2;279079453;279079453;-81
2022/04/13 18:09:25;;;;;;;;;12.50;12.50;;;;;;;;2;234068118;234068118;-81
2022/04/13 18:18:26;;;;;;;;;8.00;8.00;;;;;;;;2;279082170;279082170;-82
2022/04/13 18:27:09;;;;;;;;;11.00;11.00;;;;;;;;2;234069405;234069405;-79
2022/04/13 18:36:09;;;;;;;;;16.00;16.00;;;;;;;;2;279081227;279081227;-82
2022/04/13 18:44:52;;;;;;;;;12.50;12.50;;;;;;;;2;234068667;234068667;-81
2022/04/13 18:53:52;;;;;;;;;18.50;18.50;;;;;;;;2;279082228;279082228;-82
2022/04/13 19:02:36;;;;;;;;;15.00;15.00;;;;;;;;2;234072871;234072871;-83
2022/04/13 19:11:36;;;;;;;;;12.00;12.00;;;;;;;;2;279081279;279081279;-83
2022/04/13 19:20:20;;;;;;;;;9.00;9.00;;;;;;;;2;234070911;234070911;-86
2022/04/13 19:29:21;;;;;;;;;19.50;19.50;;;;;;;;2;279081294;279081294;-84
2022/04/13 19:38:03;;;;;;;;;17.50;17.50;;;;;;;;2;234072083;234072083;-80
2022/04/13 19:47:04;;;;;;;;;11.50;11.50;;;;;;;;2;279082228;279082228;-80
2022/04/13 19:55:47;;;;;;;;;14.00;14.00;;;;;;;;2;234071362;234071362;-81
2022/04/13 20:04:47;;;;;;;;;13.00;13.00;;;;;;;;2;279080263;279080263;-80
2022/04/13 20:13:31;;;;;;;;;17.50;17.50;;;;;;;;2;234072917;234072917;-80
2022/04/13 20:22:32;;;;;;;;;15.50;15.50;;;;;;;;2;279082401;279082401;-80
2022/04/13 20:31:15;;;;;;;;;14.50;14.50;;;;;;;;2;234068461;234068461;-80
2022/04/13 20:40:15;;;;;;;;;13.00;13.00;;;;;;;;2;279081947;279081947;-80
2022/04/13 20:48:58;;;;;;;;;19.00;19.00;;;;;;;;2;234071801;234071801;-81
2022/04/13 20:57:58;;;;;;;;;15.50;15.50;;;;;;;;2;279083816;279083816;-79
2022/04/13 21:06:29;;;;;;;;;22.50;22.00;;;;;;;;2;234071942;234071942;-80
2022/04/13 21:15:50;;;;;;;;;18.00;18.00;;;;;;;;519487;28;279079421;-79
2022/04/13 21:24:33;;;;;;;;;18.00;18.00;;;;;;;;2;234069385;234069385;-79
2022/04/13 21:33:34;;;;;;;;;27.00;25.50;;;;;;;;2;279080470;279080470;-79
2022/04/13 21:42:16;;;;;;;;;16.00;16.00;;;;;;;;2;234069190;234069190;-79
2022/04/13 21:51:18;;;;;;;;;28.00;26.50;;;;;;;;2;279082167;279082167;-79
2022/04/13 22:00:01;;;;;;;;;21.00;21.00;;;;;;;;2;234069337;234069337;-81
2022/04/13 22:09:01;;;;;;;;;18.00;18.00;;;;;;;;2;279081456;279081456;-81
2022/04/13 22:17:44;;;;;;;;;17.50;17.50;;;;;;;;2;234072460;234072460;-80
2022/04/13 22:26:45;;;;;;;;;15.00;15.00;;;;;;;;2;279079552;279079552;-79
2022/04/13 22:35:27;;;;;;;;;16.00;16.00;;;;;;;;2;234068200;234068200;-79
2022/04/13 22:44:28;;;;;;;;;19.50;19.50;;;;;;;;2;279081918;279081918;-80
2022/04/13 22:53:11;;;;;;;;;18.00;18.00;;;;;;;;2;234067582;234067582;-79
2022/04/13 23:02:11;;;;;;;;;21.50;21.50;;;;;;;;2;279081197;279081197;-79
2022/04/13 23:10:54;;;;;;;;;14.00;14.00;;;;;;;;2;234068024;234068024;-79
2022/04/13 23:19:55;;;;;;;;;24.00;24.00;;;;;;;;2;279082162;279082162;-80
2022/04/13 23:28:38;;;;;;;;;22.00;22.00;;;;;;;;2;234069251;234069251;-80
2022/04/13 23:37:38;;;;;;;;;18.50;18.50;;;;;;;;2;279081393;279081393;-80
2022/04/13 23:46:21;;;;;;;;;19.00;19.00;;;;;;;;2;234070720;234070720;-80
2022/04/13 23:55:22;;;;;;;;;16.50;16.50;;;;;;;;2;279080408;279080408;-80
